Aktualne dane pomiarowe

Uwaga, wersja testowa! Automatyczne pobieranie danych za pomocą narzędzi lub skryptów to umożliwiających jest zabronione.

Dane meteo z obszaru Polski uzyskane na podstawie depesz SYNOP pobieranych co godzinę z NWS. Najedź myszką na symbol przedstawiony w tabeli, aby uzyskać informacje co do jego znaczenia. Prosimy pamiętać, że to testowa wersja strony, która jeszcze nie jest ukończona. Stworzono również jest krótki FAQ dotyczący korzystania z tej podstrony Anomalie temperatury w chwili obecnej odniesione są do okresu referencyjnego 1951-2016. Okres ten będzie później zmieniony na 1981-2010. Kliknij ikonę aby pobrać plik CSV. Kliknij ikonę aby wygenerować mapę synoptyczną dla danego terminu.

Wybierz Datę:    

        

Płock (12360)

Dane terminowe dla wybranej stacji. Kliknij datę, aby otrzymać dane z tego terminu dla wszystkich stacji.

TemperaturaZachmurzenieWiatrCiśnienieOpadyPogoda
 Data t td wb tx tn tg rh  Nt Nl Cl Cm Ch ws wd g1 g2 wx mslp ppp ch 24h 12h t ww ww w1 w2  
2019-08-08 23:00:00 15.7 13.7 14.3--- 8813.0--3wx8931011.9 999.0 1.6---wx-----
2019-08-08 22:00:00 15.6 13.6 14.2--- 8840.0--3wx-1331011.8 998.9 1.4---wx-----
2019-08-08 21:00:00 17.7 13.4 14.8--- 7630.0--3wx--31010.4 997.6 0.3---------
2019-08-08 20:00:00 18.4 13.0 14.9--- 7130.0--2wx---1010.2 997.4 0.2---------
2019-08-08 19:00:00 19.1 12.8 15.1--- 6740.0--3wx--31010.3 997.5 0.5---------
2019-08-08 18:00:00 21.0 12.4 15.6 24.8 18.5- 5845.0--3wx-1131010.0 997.3 0.2- 0.012------
2019-08-08 17:00:00 23.5 11.5 16.2--- 4730.0--5wx--51009.8 997.2 0.2---------
2019-08-08 16:00:00 23.7 13.0 17.1--- 5130.0--5wx---1009.6 997.0 0.0---------
2019-08-08 15:00:00 24.4 12.0 16.9--- 4630.0--7wx-1171009.6 997.1 0.0---------
2019-08-08 14:00:00 24.3 11.6 16.6--- 4540.0--6wx-1161009.5 997.0 0.3---------
2019-08-08 13:00:00 24.3 11.9 16.8--- 4630.0--7wx-1071009.5 997.0 0.5---------
2019-08-08 12:00:00 24.0 12.0 16.7--- 4735.0--7wx131471009.6 997.1 1.0- 0.06------
2019-08-08 11:00:00 23.2 13.7 17.2--- 5530.0--6wx111261009.3 996.7 1.2---------
2019-08-08 10:00:00 22.0 14.1 16.9--- 6135.0--6wx-1261009.1 996.5 1.6---------
2019-08-08 09:00:00 21.1 14.7 16.9--- 6730.0--6wx-1261008.8 996.1 2.1---------
2019-08-08 08:00:00 20.4 16.2 17.5--- 7728.0--6wx--61008.2 995.5 2.3---------
2019-08-08 07:00:00 19.0 16.4 17.2--- 8517.0--5wx--51007.6 994.9 2.3---------
2019-08-08 06:00:00 18.8 16.8 17.4 23.6 17.8 17 8814.0--5wx-1151006.7 994.0 1.6 10.7 11.012----- 8.6
2019-08-08 05:00:00 18.2 16.9 17.3--- 9212.0--5wx---1005.9 993.2 0.7---------
2019-08-08 04:00:00 18.3 17.0 17.4--- 9216.0--5wx10--1005.3 992.6 0.2---------
2019-08-08 03:00:00 17.9 16.8 17.1--- 9327.0--5wx--51005.1 992.4 0.0---wx-----
2019-08-08 02:00:00 17.9 16.8 17.1--- 9325.0--3wx--31005.3 992.5 -0.2---------
2019-08-08 01:00:00 18.0 16.8 17.1--- 9323.0--4wx--41005.1 992.4 0.0---wx-----
2019-08-08 00:00:00 17.9 17.3 17.5--- 9618.0--4wx-1241005.1 992.4 0.0- 11.06wx-----
2019-08-07 23:00:00 18.1 17.6 17.7--- 9712.0--3wx--31005.4 992.7 -0.9---wx-----
2019-08-07 22:00:00 18.3 17.8 17.9--- 978.0--1wx--11005.1 992.4 -0.2---wx-----
2019-08-07 21:00:00 18.2 17.2 17.5--- 9417.0--2wx-1221005.1 992.4 -0.1---wx-----
2019-08-07 20:00:00 19.6 17.9 18.4--- 902.2--4wx---1006.3 993.6 0.4---wx-----
2019-08-07 19:00:00 22.4 16.0 18.1--- 6727.0--1wx---1005.2 992.6 -0.7---------
2019-08-07 18:00:00 23.6 15.4 18.3 27.0 19.7- 6045.0--2wx--21005.0 992.5 -1.2- 0.012------
2019-08-07 17:00:00 25.1 14.2 18.2--- 5140.0--3wx--31005.6 993.2 -1.1---------
2019-08-07 16:00:00 25.8 14.9 18.9--- 5130.0--3wx--31005.7 993.3 -1.3---------
2019-08-07 15:00:00 25.8 14.9 18.9--- 5130.0--3wx--31006.1 993.7 -1.6---------
2019-08-07 14:00:00 25.8 15.2 19.0--- 5230.0--2wx---1006.7 994.3 -1.1---------
2019-08-07 13:00:00 25.3 15.6 19.0--- 5530.0--3wx--31007.1 994.6 -1.2---------
2019-08-07 12:00:00 25.0 15.3 18.8--- 5535.0--2wx--21007.8 995.3 -0.5- 0.06------
2019-08-07 11:00:00 25.2 15.5 18.9--- 5530.0--2wx--21007.9 995.4 -0.3---------
2019-08-07 10:00:00 23.7 16.5 18.9--- 6435.0--2wx--21008.3 995.8 0.4---------
2019-08-07 09:00:00 22.4 15.7 18.0--- 6630.0--1wx---1008.4 995.8 0.5---------
2019-08-07 08:00:00 20.8 17.0 18.2--- 7926.0--3wx--31008.4 995.7 0.7---------
2019-08-07 07:00:00 20.9 16.7 18.0--- 7730.0--3wx--31008.1 995.4 0.4---------
2019-08-07 06:00:00 19.6 17.2 17.9 25.3 16.4 15 8615.0--1wx--11008.0 995.3 0.1 0.7 0.712----- 7.8
2019-08-07 05:00:00 17.3 16.5 16.7--- 959.0--1wx--11007.8 995.0 -0.2---wx-----
2019-08-07 04:00:00 16.5 15.7 15.9--- 958.0--1wx---1007.8 995.0 -0.1---wx-----
2019-08-07 03:00:00 16.8 15.5 15.9--- 9211.0--2wx--21008.0 995.2 -0.2---wx-----
2019-08-07 02:00:00 18.4 16.0 16.7--- 8621.0--2wx--21008.0 995.2 -0.1---------
2019-08-07 01:00:00 17.3 15.1 15.7--- 8720.0--1wx--11007.9 995.1 -0.2---wx-----
2019-08-07 00:00:00 18.8 15.3 16.4--- 8035.0--2wx--21008.1 995.4 0.3--6wx-----
2.1 ms

 

Print Friendly, PDF & Email